sensor_id;sensor_type;location;lat;lon;timestamp;P1;durP1;ratioP1;P2;durP2;ratioP2
8104;SDS011;4095;48.942;9.104;2022-08-23T00:01:23;6.40;;;2.90;;
8104;SDS011;4095;48.942;9.104;2022-08-23T00:03:51;3.40;;;2.43;;
8104;SDS011;4095;48.942;9.104;2022-08-23T00:06:18;3.20;;;2.30;;
8104;SDS011;4095;48.942;9.104;2022-08-23T00:08:46;2.97;;;2.60;;
8104;SDS011;4095;48.942;9.104;2022-08-23T00:11:29;4.63;;;2.60;;
8104;SDS011;4095;48.942;9.104;2022-08-23T00:13:59;3.10;;;2.40;;
8104;SDS011;4095;48.942;9.104;2022-08-23T00:16:26;3.47;;;2.50;;
8104;SDS011;4095;48.942;9.104;2022-08-23T00:18:52;3.70;;;2.60;;
8104;SDS011;4095;48.942;9.104;2022-08-23T00:21:18;3.80;;;2.70;;
8104;SDS011;4095;48.942;9.104;2022-08-23T00:23:44;3.50;;;2.47;;
8104;SDS011;4095;48.942;9.104;2022-08-23T00:26:09;4.33;;;2.80;;
8104;SDS011;4095;48.942;9.104;2022-08-23T00:28:35;3.40;;;2.50;;
8104;SDS011;4095;48.942;9.104;2022-08-23T00:31:00;3.73;;;2.37;;
8104;SDS011;4095;48.942;9.104;2022-08-23T00:33:26;5.90;;;2.80;;
8104;SDS011;4095;48.942;9.104;2022-08-23T00:35:52;3.77;;;2.50;;
8104;SDS011;4095;48.942;9.104;2022-08-23T00:38:17;3.27;;;2.57;;
8104;SDS011;4095;48.942;9.104;2022-08-23T00:40:44;3.13;;;2.57;;
8104;SDS011;4095;48.942;9.104;2022-08-23T00:43:13;4.23;;;3.00;;
8104;SDS011;4095;48.942;9.104;2022-08-23T00:49:06;3.77;;;2.87;;
8104;SDS011;4095;48.942;9.104;2022-08-23T00:51:37;3.97;;;2.77;;
8104;SDS011;4095;48.942;9.104;2022-08-23T00:54:10;3.23;;;2.60;;
8104;SDS011;4095;48.942;9.104;2022-08-23T00:56:38;2.93;;;2.60;;
8104;SDS011;4095;48.942;9.104;2022-08-23T00:59:04;4.00;;;2.90;;
8104;SDS011;4095;48.942;9.104;2022-08-23T01:01:31;5.87;;;2.90;;
8104;SDS011;4095;48.942;9.104;2022-08-23T01:03:57;3.00;;;2.70;;
8104;SDS011;4095;48.942;9.104;2022-08-23T01:09:15;3.27;;;2.73;;
8104;SDS011;4095;48.942;9.104;2022-08-23T01:14:58;3.57;;;2.80;;
8104;SDS011;4095;48.942;9.104;2022-08-23T01:17:04;4.97;;;2.67;;
8104;SDS011;4095;48.942;9.104;2022-08-23T01:19:36;4.43;;;2.73;;
8104;SDS011;4095;48.942;9.104;2022-08-23T01:22:12;6.03;;;3.10;;
8104;SDS011;4095;48.942;9.104;2022-08-23T01:24:50;3.47;;;3.17;;
8104;SDS011;4095;48.942;9.104;2022-08-23T01:27:17;4.13;;;3.00;;
8104;SDS011;4095;48.942;9.104;2022-08-23T01:29:43;3.30;;;2.77;;
8104;SDS011;4095;48.942;9.104;2022-08-23T01:32:08;4.13;;;3.03;;
8104;SDS011;4095;48.942;9.104;2022-08-23T01:34:36;5.20;;;3.03;;
8104;SDS011;4095;48.942;9.104;2022-08-23T01:37:03;5.33;;;3.17;;
8104;SDS011;4095;48.942;9.104;2022-08-23T01:39:31;4.43;;;2.90;;
8104;SDS011;4095;48.942;9.104;2022-08-23T01:41:58;4.17;;;3.23;;
8104;SDS011;4095;48.942;9.104;2022-08-23T01:44:23;3.97;;;2.80;;
8104;SDS011;4095;48.942;9.104;2022-08-23T01:46:50;6.87;;;3.30;;
8104;SDS011;4095;48.942;9.104;2022-08-23T01:49:16;7.00;;;3.00;;
8104;SDS011;4095;48.942;9.104;2022-08-23T01:51:42;5.70;;;3.10;;
8104;SDS011;4095;48.942;9.104;2022-08-23T01:54:08;4.13;;;2.70;;
8104;SDS011;4095;48.942;9.104;2022-08-23T01:56:34;4.87;;;3.23;;
8104;SDS011;4095;48.942;9.104;2022-08-23T01:59:00;4.27;;;2.90;;
8104;SDS011;4095;48.942;9.104;2022-08-23T02:01:26;5.10;;;3.20;;
8104;SDS011;4095;48.942;9.104;2022-08-23T02:03:52;3.43;;;2.83;;
8104;SDS011;4095;48.942;9.104;2022-08-23T02:06:17;3.43;;;2.80;;
8104;SDS011;4095;48.942;9.104;2022-08-23T02:08:45;4.47;;;3.00;;
8104;SDS011;4095;48.942;9.104;2022-08-23T02:11:27;5.90;;;3.20;;
8104;SDS011;4095;48.942;9.104;2022-08-23T02:13:56;5.97;;;3.20;;
8104;SDS011;4095;48.942;9.104;2022-08-23T02:16:25;4.23;;;3.10;;
8104;SDS011;4095;48.942;9.104;2022-08-23T02:18:53;3.80;;;2.93;;
8104;SDS011;4095;48.942;9.104;2022-08-23T02:21:20;3.93;;;3.10;;
8104;SDS011;4095;48.942;9.104;2022-08-23T02:23:46;3.17;;;2.80;;
8104;SDS011;4095;48.942;9.104;2022-08-23T02:26:12;4.70;;;3.57;;
8104;SDS011;4095;48.942;9.104;2022-08-23T02:28:38;4.20;;;3.13;;
8104;SDS011;4095;48.942;9.104;2022-08-23T02:31:04;3.67;;;3.27;;
8104;SDS011;4095;48.942;9.104;2022-08-23T02:33:30;6.07;;;3.80;;
8104;SDS011;4095;48.942;9.104;2022-08-23T02:35:55;4.67;;;3.50;;
8104;SDS011;4095;48.942;9.104;2022-08-23T02:38:21;5.33;;;3.70;;
8104;SDS011;4095;48.942;9.104;2022-08-23T02:40:47;5.37;;;3.67;;
8104;SDS011;4095;48.942;9.104;2022-08-23T02:43:12;3.47;;;3.17;;
8104;SDS011;4095;48.942;9.104;2022-08-23T02:45:38;5.57;;;3.57;;
8104;SDS011;4095;48.942;9.104;2022-08-23T02:48:05;4.07;;;3.37;;
8104;SDS011;4095;48.942;9.104;2022-08-23T02:50:32;4.37;;;3.20;;
8104;SDS011;4095;48.942;9.104;2022-08-23T02:52:58;3.43;;;3.13;;
8104;SDS011;4095;48.942;9.104;2022-08-23T02:55:24;4.57;;;3.27;;
8104;SDS011;4095;48.942;9.104;2022-08-23T02:57:50;4.33;;;3.33;;
8104;SDS011;4095;48.942;9.104;2022-08-23T03:00:16;3.83;;;3.30;;
8104;SDS011;4095;48.942;9.104;2022-08-23T03:02:45;5.87;;;3.80;;
8104;SDS011;4095;48.942;9.104;2022-08-23T03:05:11;4.77;;;3.43;;
8104;SDS011;4095;48.942;9.104;2022-08-23T03:07:38;5.10;;;3.60;;
8104;SDS011;4095;48.942;9.104;2022-08-23T03:10:04;4.20;;;3.40;;
8104;SDS011;4095;48.942;9.104;2022-08-23T03:12:31;6.53;;;3.50;;
8104;SDS011;4095;48.942;9.104;2022-08-23T03:14:57;6.30;;;3.50;;
8104;SDS011;4095;48.942;9.104;2022-08-23T03:17:23;4.23;;;2.97;;
8104;SDS011;4095;48.942;9.104;2022-08-23T03:19:48;5.33;;;3.40;;
8104;SDS011;4095;48.942;9.104;2022-08-23T03:22:16;7.73;;;3.70;;
8104;SDS011;4095;48.942;9.104;2022-08-23T03:24:42;5.63;;;3.20;;
8104;SDS011;4095;48.942;9.104;2022-08-23T03:27:08;4.23;;;3.37;;
8104;SDS011;4095;48.942;9.104;2022-08-23T03:29:35;6.30;;;3.60;;
8104;SDS011;4095;48.942;9.104;2022-08-23T03:32:02;4.17;;;3.47;;
8104;SDS011;4095;48.942;9.104;2022-08-23T03:34:29;5.07;;;3.57;;
8104;SDS011;4095;48.942;9.104;2022-08-23T03:36:55;4.77;;;3.53;;
8104;SDS011;4095;48.942;9.104;2022-08-23T03:39:21;4.40;;;3.03;;
8104;SDS011;4095;48.942;9.104;2022-08-23T03:41:47;5.33;;;3.70;;
8104;SDS011;4095;48.942;9.104;2022-08-23T03:44:12;4.07;;;3.63;;
8104;SDS011;4095;48.942;9.104;2022-08-23T03:46:38;5.57;;;3.90;;
8104;SDS011;4095;48.942;9.104;2022-08-23T03:49:04;4.57;;;3.80;;
8104;SDS011;4095;48.942;9.104;2022-08-23T03:51:30;6.17;;;3.70;;
8104;SDS011;4095;48.942;9.104;2022-08-23T03:53:58;4.27;;;3.60;;
8104;SDS011;4095;48.942;9.104;2022-08-23T03:56:31;4.83;;;3.63;;
8104;SDS011;4095;48.942;9.104;2022-08-23T03:59:00;4.87;;;3.60;;
8104;SDS011;4095;48.942;9.104;2022-08-23T04:01:29;6.03;;;3.37;;
8104;SDS011;4095;48.942;9.104;2022-08-23T04:03:55;3.83;;;3.50;;
8104;SDS011;4095;48.942;9.104;2022-08-23T04:06:24;5.87;;;3.77;;
8104;SDS011;4095;48.942;9.104;2022-08-23T04:08:53;5.13;;;3.80;;
8104;SDS011;4095;48.942;9.104;2022-08-23T04:11:20;6.47;;;3.60;;
8104;SDS011;4095;48.942;9.104;2022-08-23T04:13:46;5.27;;;3.60;;
8104;SDS011;4095;48.942;9.104;2022-08-23T04:16:12;6.17;;;3.97;;
8104;SDS011;4095;48.942;9.104;2022-08-23T04:18:38;4.87;;;3.50;;
8104;SDS011;4095;48.942;9.104;2022-08-23T04:21:06;4.77;;;3.90;;
8104;SDS011;4095;48.942;9.104;2022-08-23T04:23:34;5.93;;;3.73;;
8104;SDS011;4095;48.942;9.104;2022-08-23T04:26:01;4.37;;;3.67;;
8104;SDS011;4095;48.942;9.104;2022-08-23T04:28:26;5.83;;;3.87;;
8104;SDS011;4095;48.942;9.104;2022-08-23T04:30:52;5.03;;;3.90;;
8104;SDS011;4095;48.942;9.104;2022-08-23T04:33:18;4.93;;;3.70;;
8104;SDS011;4095;48.942;9.104;2022-08-23T04:35:43;4.60;;;3.47;;
8104;SDS011;4095;48.942;9.104;2022-08-23T04:38:09;4.23;;;3.80;;
8104;SDS011;4095;48.942;9.104;2022-08-23T04:40:36;4.50;;;4.10;;
8104;SDS011;4095;48.942;9.104;2022-08-23T04:43:20;4.27;;;3.60;;
8104;SDS011;4095;48.942;9.104;2022-08-23T04:45:45;4.03;;;3.50;;
8104;SDS011;4095;48.942;9.104;2022-08-23T04:48:11;6.23;;;3.80;;
8104;SDS011;4095;48.942;9.104;2022-08-23T04:50:38;4.73;;;3.60;;
8104;SDS011;4095;48.942;9.104;2022-08-23T04:53:05;5.40;;;3.97;;
8104;SDS011;4095;48.942;9.104;2022-08-23T04:55:32;5.80;;;4.00;;
8104;SDS011;4095;48.942;9.104;2022-08-23T04:57:57;4.47;;;3.73;;
8104;SDS011;4095;48.942;9.104;2022-08-23T05:00:23;5.30;;;3.90;;
8104;SDS011;4095;48.942;9.104;2022-08-23T05:02:48;4.07;;;3.57;;
8104;SDS011;4095;48.942;9.104;2022-08-23T05:05:15;5.40;;;3.83;;
8104;SDS011;4095;48.942;9.104;2022-08-23T05:07:40;5.33;;;3.80;;
8104;SDS011;4095;48.942;9.104;2022-08-23T05:10:06;5.37;;;4.10;;
8104;SDS011;4095;48.942;9.104;2022-08-23T05:12:34;4.30;;;3.50;;
8104;SDS011;4095;48.942;9.104;2022-08-23T05:14:59;6.03;;;3.93;;
8104;SDS011;4095;48.942;9.104;2022-08-23T05:17:25;5.97;;;3.70;;
8104;SDS011;4095;48.942;9.104;2022-08-23T05:19:51;5.43;;;3.93;;
8104;SDS011;4095;48.942;9.104;2022-08-23T05:22:16;5.87;;;4.23;;
8104;SDS011;4095;48.942;9.104;2022-08-23T05:24:42;4.50;;;3.67;;
8104;SDS011;4095;48.942;9.104;2022-08-23T05:27:08;5.10;;;3.63;;
8104;SDS011;4095;48.942;9.104;2022-08-23T05:29:34;5.70;;;3.93;;
8104;SDS011;4095;48.942;9.104;2022-08-23T05:31:59;5.57;;;3.67;;
8104;SDS011;4095;48.942;9.104;2022-08-23T05:34:25;5.87;;;4.03;;
8104;SDS011;4095;48.942;9.104;2022-08-23T05:36:51;4.33;;;3.93;;
8104;SDS011;4095;48.942;9.104;2022-08-23T05:39:17;6.80;;;4.43;;
8104;SDS011;4095;48.942;9.104;2022-08-23T05:41:46;6.53;;;5.20;;
8104;SDS011;4095;48.942;9.104;2022-08-23T05:44:12;6.63;;;5.00;;
8104;SDS011;4095;48.942;9.104;2022-08-23T05:46:39;9.10;;;5.70;;
8104;SDS011;4095;48.942;9.104;2022-08-23T05:49:05;6.80;;;5.90;;
8104;SDS011;4095;48.942;9.104;2022-08-23T05:51:32;8.00;;;6.23;;
8104;SDS011;4095;48.942;9.104;2022-08-23T05:54:00;9.30;;;5.87;;
8104;SDS011;4095;48.942;9.104;2022-08-23T05:59:05;7.50;;;4.90;;
8104;SDS011;4095;48.942;9.104;2022-08-23T06:01:33;5.30;;;4.60;;
8104;SDS011;4095;48.942;9.104;2022-08-23T06:04:00;5.57;;;3.97;;
8104;SDS011;4095;48.942;9.104;2022-08-23T06:06:27;5.97;;;5.17;;
8104;SDS011;4095;48.942;9.104;2022-08-23T06:08:54;6.90;;;4.50;;
8104;SDS011;4095;48.942;9.104;2022-08-23T06:11:25;5.43;;;4.70;;
8104;SDS011;4095;48.942;9.104;2022-08-23T06:13:56;5.87;;;4.27;;
8104;SDS011;4095;48.942;9.104;2022-08-23T06:16:25;5.57;;;4.17;;
8104;SDS011;4095;48.942;9.104;2022-08-23T06:18:54;5.90;;;4.17;;
8104;SDS011;4095;48.942;9.104;2022-08-23T06:21:21;6.83;;;4.60;;
8104;SDS011;4095;48.942;9.104;2022-08-23T06:23:48;7.40;;;4.37;;
8104;SDS011;4095;48.942;9.104;2022-08-23T06:28:40;5.73;;;4.07;;
8104;SDS011;4095;48.942;9.104;2022-08-23T06:31:07;4.57;;;3.50;;
8104;SDS011;4095;48.942;9.104;2022-08-23T06:33:33;5.83;;;3.60;;
8104;SDS011;4095;48.942;9.104;2022-08-23T06:36:00;4.50;;;3.63;;
8104;SDS011;4095;48.942;9.104;2022-08-23T06:38:31;8.07;;;4.13;;
8104;SDS011;4095;48.942;9.104;2022-08-23T06:41:02;5.23;;;3.97;;
8104;SDS011;4095;48.942;9.104;2022-08-23T06:43:30;8.23;;;4.40;;
8104;SDS011;4095;48.942;9.104;2022-08-23T06:46:10;6.27;;;4.10;;
8104;SDS011;4095;48.942;9.104;2022-08-23T06:48:40;6.60;;;3.97;;
8104;SDS011;4095;48.942;9.104;2022-08-23T06:51:10;6.17;;;4.17;;
8104;SDS011;4095;48.942;9.104;2022-08-23T06:53:37;5.40;;;3.60;;
8104;SDS011;4095;48.942;9.104;2022-08-23T06:56:03;3.63;;;3.00;;
8104;SDS011;4095;48.942;9.104;2022-08-23T06:58:30;3.60;;;3.13;;
8104;SDS011;4095;48.942;9.104;2022-08-23T07:00:55;4.47;;;3.30;;
8104;SDS011;4095;48.942;9.104;2022-08-23T07:03:44;5.03;;;3.23;;
8104;SDS011;4095;48.942;9.104;2022-08-23T07:06:09;4.77;;;3.37;;
8104;SDS011;4095;48.942;9.104;2022-08-23T07:08:35;5.77;;;3.10;;
8104;SDS011;4095;48.942;9.104;2022-08-23T07:11:01;5.03;;;3.03;;
8104;SDS011;4095;48.942;9.104;2022-08-23T07:13:27;5.27;;;3.13;;
8104;SDS011;4095;48.942;9.104;2022-08-23T07:15:56;5.83;;;3.27;;
8104;SDS011;4095;48.942;9.104;2022-08-23T07:18:23;3.97;;;2.87;;
8104;SDS011;4095;48.942;9.104;2022-08-23T07:20:53;4.97;;;2.60;;
8104;SDS011;4095;48.942;9.104;2022-08-23T07:23:23;4.50;;;2.77;;
8104;SDS011;4095;48.942;9.104;2022-08-23T07:25:50;3.93;;;2.67;;
8104;SDS011;4095;48.942;9.104;2022-08-23T07:28:15;4.73;;;3.10;;
8104;SDS011;4095;48.942;9.104;2022-08-23T07:30:41;4.77;;;2.70;;
8104;SDS011;4095;48.942;9.104;2022-08-23T07:33:07;2.83;;;2.30;;
8104;SDS011;4095;48.942;9.104;2022-08-23T07:35:33;3.53;;;2.67;;
8104;SDS011;4095;48.942;9.104;2022-08-23T07:37:58;5.63;;;2.70;;
8104;SDS011;4095;48.942;9.104;2022-08-23T07:40:24;4.73;;;2.37;;
8104;SDS011;4095;48.942;9.104;2022-08-23T07:42:50;6.43;;;2.63;;
8104;SDS011;4095;48.942;9.104;2022-08-23T07:45:16;4.20;;;2.80;;
8104;SDS011;4095;48.942;9.104;2022-08-23T07:47:42;3.40;;;2.53;;
8104;SDS011;4095;48.942;9.104;2022-08-23T07:50:08;4.37;;;2.70;;
8104;SDS011;4095;48.942;9.104;2022-08-23T07:52:33;5.97;;;2.73;;
8104;SDS011;4095;48.942;9.104;2022-08-23T07:54:59;4.23;;;2.77;;
8104;SDS011;4095;48.942;9.104;2022-08-23T07:57:25;5.63;;;2.80;;
8104;SDS011;4095;48.942;9.104;2022-08-23T07:59:52;6.27;;;2.67;;
8104;SDS011;4095;48.942;9.104;2022-08-23T08:02:18;4.23;;;2.53;;
8104;SDS011;4095;48.942;9.104;2022-08-23T08:04:43;5.10;;;2.50;;
8104;SDS011;4095;48.942;9.104;2022-08-23T08:07:09;3.78;;;2.67;;
8104;SDS011;4095;48.942;9.104;2022-08-23T08:09:34;5.47;;;2.85;;
8104;SDS011;4095;48.942;9.104;2022-08-23T08:12:00;4.43;;;2.50;;
8104;SDS011;4095;48.942;9.104;2022-08-23T08:14:25;3.90;;;2.50;;
8104;SDS011;4095;48.942;9.104;2022-08-23T08:16:51;3.05;;;2.38;;
8104;SDS011;4095;48.942;9.104;2022-08-23T08:19:18;5.25;;;2.75;;
8104;SDS011;4095;48.942;9.104;2022-08-23T08:21:44;5.15;;;2.70;;
8104;SDS011;4095;48.942;9.104;2022-08-23T08:24:12;4.50;;;2.50;;
8104;SDS011;4095;48.942;9.104;2022-08-23T08:26:40;4.82;;;2.65;;
8104;SDS011;4095;48.942;9.104;2022-08-23T08:29:06;4.32;;;2.63;;
8104;SDS011;4095;48.942;9.104;2022-08-23T08:31:35;6.28;;;2.65;;
8104;SDS011;4095;48.942;9.104;2022-08-23T08:34:03;3.38;;;2.47;;
8104;SDS011;4095;48.942;9.104;2022-08-23T08:39:14;5.45;;;2.60;;
8104;SDS011;4095;48.942;9.104;2022-08-23T08:44:18;5.75;;;2.35;;
8104;SDS011;4095;48.942;9.104;2022-08-23T08:46:47;5.32;;;2.30;;
8104;SDS011;4095;48.942;9.104;2022-08-23T08:49:17;4.78;;;2.53;;
8104;SDS011;4095;48.942;9.104;2022-08-23T08:52:16;3.00;;;2.10;;
8104;SDS011;4095;48.942;9.104;2022-08-23T08:54:46;5.28;;;2.42;;
8104;SDS011;4095;48.942;9.104;2022-08-23T08:57:14;4.75;;;2.53;;
8104;SDS011;4095;48.942;9.104;2022-08-23T09:02:28;5.20;;;2.40;;
8104;SDS011;4095;48.942;9.104;2022-08-23T09:04:57;5.65;;;2.50;;
8104;SDS011;4095;48.942;9.104;2022-08-23T09:07:43;5.80;;;2.42;;
8104;SDS011;4095;48.942;9.104;2022-08-23T09:10:24;3.88;;;2.42;;
8104;SDS011;4095;48.942;9.104;2022-08-23T09:13:20;4.82;;;2.47;;
8104;SDS011;4095;48.942;9.104;2022-08-23T09:16:06;4.40;;;2.53;;
8104;SDS011;4095;48.942;9.104;2022-08-23T09:18:36;4.45;;;2.10;;
8104;SDS011;4095;48.942;9.104;2022-08-23T09:21:04;6.43;;;2.33;;
8104;SDS011;4095;48.942;9.104;2022-08-23T09:23:35;2.88;;;2.17;;
8104;SDS011;4095;48.942;9.104;2022-08-23T09:26:14;5.18;;;2.15;;
8104;SDS011;4095;48.942;9.104;2022-08-23T09:28:53;4.70;;;2.15;;
8104;SDS011;4095;48.942;9.104;2022-08-23T09:31:37;3.67;;;2.10;;
8104;SDS011;4095;48.942;9.104;2022-08-23T09:34:03;4.22;;;2.10;;
8104;SDS011;4095;48.942;9.104;2022-08-23T09:36:34;4.18;;;1.90;;
8104;SDS011;4095;48.942;9.104;2022-08-23T09:39:04;3.83;;;2.00;;
8104;SDS011;4095;48.942;9.104;2022-08-23T09:41:48;3.10;;;2.13;;
8104;SDS011;4095;48.942;9.104;2022-08-23T09:44:28;4.20;;;2.20;;
8104;SDS011;4095;48.942;9.104;2022-08-23T09:47:09;3.42;;;2.10;;
8104;SDS011;4095;48.942;9.104;2022-08-23T09:49:38;4.88;;;2.10;;
8104;SDS011;4095;48.942;9.104;2022-08-23T09:52:10;3.03;;;1.88;;
8104;SDS011;4095;48.942;9.104;2022-08-23T09:55:44;4.53;;;1.90;;
8104;SDS011;4095;48.942;9.104;2022-08-23T09:57:55;2.65;;;1.95;;
8104;SDS011;4095;48.942;9.104;2022-08-23T10:00:25;3.13;;;1.90;;
8104;SDS011;4095;48.942;9.104;2022-08-23T10:03:18;3.90;;;1.95;;
8104;SDS011;4095;48.942;9.104;2022-08-23T10:05:48;2.70;;;1.80;;
8104;SDS011;4095;48.942;9.104;2022-08-23T10:08:27;3.30;;;2.33;;
8104;SDS011;4095;48.942;9.104;2022-08-23T10:11:01;3.65;;;2.10;;
8104;SDS011;4095;48.942;9.104;2022-08-23T10:13:47;3.85;;;1.85;;
8104;SDS011;4095;48.942;9.104;2022-08-23T10:22:08;3.50;;;2.10;;
8104;SDS011;4095;48.942;9.104;2022-08-23T10:27:04;4.50;;;1.75;;
8104;SDS011;4095;48.942;9.104;2022-08-23T10:30:10;2.67;;;1.70;;
8104;SDS011;4095;48.942;9.104;2022-08-23T10:40:32;3.78;;;1.83;;
8104;SDS011;4095;48.942;9.104;2022-08-23T10:43:19;3.15;;;1.85;;
8104;SDS011;4095;48.942;9.104;2022-08-23T10:45:55;3.80;;;1.70;;
8104;SDS011;4095;48.942;9.104;2022-08-23T10:48:46;3.17;;;1.80;;
8104;SDS011;4095;48.942;9.104;2022-08-23T10:51:23;3.85;;;1.80;;
8104;SDS011;4095;48.942;9.104;2022-08-23T10:53:58;3.17;;;1.85;;
8104;SDS011;4095;48.942;9.104;2022-08-23T10:56:28;4.20;;;1.70;;
8104;SDS011;4095;48.942;9.104;2022-08-23T10:58:57;2.50;;;1.70;;
8104;SDS011;4095;48.942;9.104;2022-08-23T11:07:17;2.60;;;1.70;;
8104;SDS011;4095;48.942;9.104;2022-08-23T11:10:31;5.03;;;1.73;;
8104;SDS011;4095;48.942;9.104;2022-08-23T11:15:44;4.20;;;1.80;;
8104;SDS011;4095;48.942;9.104;2022-08-23T11:31:38;3.58;;;1.80;;
8104;SDS011;4095;48.942;9.104;2022-08-23T11:34:41;2.15;;;1.60;;
8104;SDS011;4095;48.942;9.104;2022-08-23T11:44:58;2.28;;;1.60;;
8104;SDS011;4095;48.942;9.104;2022-08-23T11:47:26;3.10;;;1.40;;
8104;SDS011;4095;48.942;9.104;2022-08-23T11:50:12;3.08;;;1.38;;
8104;SDS011;4095;48.942;9.104;2022-08-23T12:01:06;2.97;;;1.80;;
8104;SDS011;4095;48.942;9.104;2022-08-23T12:03:35;2.63;;;1.90;;
8104;SDS011;4095;48.942;9.104;2022-08-23T12:09:05;3.15;;;1.60;;
8104;SDS011;4095;48.942;9.104;2022-08-23T12:17:52;3.25;;;1.77;;
8104;SDS011;4095;48.942;9.104;2022-08-23T12:22:20;3.80;;;1.95;;
8104;SDS011;4095;48.942;9.104;2022-08-23T12:25:01;5.07;;;1.90;;
8104;SDS011;4095;48.942;9.104;2022-08-23T12:27:47;3.08;;;1.80;;
8104;SDS011;4095;48.942;9.104;2022-08-23T12:30:20;3.25;;;1.52;;
8104;SDS011;4095;48.942;9.104;2022-08-23T12:35:40;3.70;;;1.70;;
8104;SDS011;4095;48.942;9.104;2022-08-23T12:38:35;2.70;;;1.55;;
8104;SDS011;4095;48.942;9.104;2022-08-23T12:41:15;3.80;;;1.70;;
8104;SDS011;4095;48.942;9.104;2022-08-23T12:43:52;2.22;;;1.55;;
8104;SDS011;4095;48.942;9.104;2022-08-23T12:46:30;4.07;;;1.80;;
8104;SDS011;4095;48.942;9.104;2022-08-23T12:49:07;3.28;;;1.50;;
8104;SDS011;4095;48.942;9.104;2022-08-23T12:51:39;2.60;;;1.60;;
8104;SDS011;4095;48.942;9.104;2022-08-23T12:54:16;3.00;;;1.80;;
8104;SDS011;4095;48.942;9.104;2022-08-23T12:56:48;2.38;;;1.60;;
8104;SDS011;4095;48.942;9.104;2022-08-23T12:59:31;2.53;;;1.60;;
8104;SDS011;4095;48.942;9.104;2022-08-23T13:02:15;3.17;;;1.90;;
8104;SDS011;4095;48.942;9.104;2022-08-23T13:04:49;3.38;;;1.70;;
8104;SDS011;4095;48.942;9.104;2022-08-23T13:07:17;2.95;;;1.80;;
8104;SDS011;4095;48.942;9.104;2022-08-23T13:09:47;2.13;;;1.52;;
8104;SDS011;4095;48.942;9.104;2022-08-23T13:12:13;4.72;;;1.60;;
8104;SDS011;4095;48.942;9.104;2022-08-23T13:14:46;3.95;;;1.70;;
8104;SDS011;4095;48.942;9.104;2022-08-23T13:17:15;2.47;;;1.52;;
8104;SDS011;4095;48.942;9.104;2022-08-23T13:19:41;6.82;;;1.80;;
8104;SDS011;4095;48.942;9.104;2022-08-23T13:22:19;3.10;;;2.00;;
8104;SDS011;4095;48.942;9.104;2022-08-23T13:25:09;3.08;;;1.70;;
8104;SDS011;4095;48.942;9.104;2022-08-23T13:32:37;2.92;;;1.70;;
8104;SDS011;4095;48.942;9.104;2022-08-23T13:35:22;2.67;;;1.88;;
8104;SDS011;4095;48.942;9.104;2022-08-23T13:37:56;3.45;;;1.70;;
8104;SDS011;4095;48.942;9.104;2022-08-23T13:40:25;4.07;;;1.90;;
8104;SDS011;4095;48.942;9.104;2022-08-23T13:43:03;2.90;;;1.90;;
8104;SDS011;4095;48.942;9.104;2022-08-23T13:45:32;4.10;;;2.00;;
8104;SDS011;4095;48.942;9.104;2022-08-23T13:48:10;3.00;;;1.48;;
8104;SDS011;4095;48.942;9.104;2022-08-23T13:50:53;3.40;;;1.60;;
8104;SDS011;4095;48.942;9.104;2022-08-23T13:53:39;4.03;;;1.80;;
8104;SDS011;4095;48.942;9.104;2022-08-23T13:56:04;2.65;;;1.73;;
8104;SDS011;4095;48.942;9.104;2022-08-23T13:58:31;2.13;;;1.38;;
8104;SDS011;4095;48.942;9.104;2022-08-23T14:00:58;3.72;;;1.50;;
8104;SDS011;4095;48.942;9.104;2022-08-23T14:03:25;2.65;;;1.67;;
8104;SDS011;4095;48.942;9.104;2022-08-23T14:05:52;3.10;;;1.70;;
8104;SDS011;4095;48.942;9.104;2022-08-23T14:08:18;3.22;;;1.88;;
8104;SDS011;4095;48.942;9.104;2022-08-23T14:10:44;2.75;;;1.80;;
8104;SDS011;4095;48.942;9.104;2022-08-23T14:13:11;2.58;;;1.55;;
8104;SDS011;4095;48.942;9.104;2022-08-23T14:15:42;3.22;;;1.60;;
8104;SDS011;4095;48.942;9.104;2022-08-23T14:18:08;2.45;;;1.80;;
8104;SDS011;4095;48.942;9.104;2022-08-23T14:20:35;3.42;;;1.60;;
8104;SDS011;4095;48.942;9.104;2022-08-23T14:23:01;4.63;;;1.98;;
8104;SDS011;4095;48.942;9.104;2022-08-23T14:25:27;4.88;;;1.98;;
8104;SDS011;4095;48.942;9.104;2022-08-23T14:27:52;5.45;;;1.63;;
8104;SDS011;4095;48.942;9.104;2022-08-23T14:30:28;2.38;;;1.70;;
8104;SDS011;4095;48.942;9.104;2022-08-23T14:32:56;4.03;;;1.73;;
8104;SDS011;4095;48.942;9.104;2022-08-23T14:35:22;3.13;;;1.70;;
8104;SDS011;4095;48.942;9.104;2022-08-23T14:37:48;3.05;;;1.70;;
8104;SDS011;4095;48.942;9.104;2022-08-23T14:40:14;3.70;;;2.15;;
8104;SDS011;4095;48.942;9.104;2022-08-23T14:42:41;2.42;;;1.63;;
8104;SDS011;4095;48.942;9.104;2022-08-23T14:45:07;3.85;;;1.83;;
8104;SDS011;4095;48.942;9.104;2022-08-23T14:47:33;3.30;;;1.88;;
8104;SDS011;4095;48.942;9.104;2022-08-23T14:50:03;2.63;;;1.73;;
8104;SDS011;4095;48.942;9.104;2022-08-23T14:52:30;2.55;;;1.98;;
8104;SDS011;4095;48.942;9.104;2022-08-23T14:54:56;2.42;;;1.80;;
8104;SDS011;4095;48.942;9.104;2022-08-23T14:57:21;2.08;;;1.80;;
8104;SDS011;4095;48.942;9.104;2022-08-23T14:59:47;3.90;;;1.83;;
8104;SDS011;4095;48.942;9.104;2022-08-23T15:02:14;3.30;;;2.00;;
8104;SDS011;4095;48.942;9.104;2022-08-23T15:04:46;3.08;;;1.80;;
8104;SDS011;4095;48.942;9.104;2022-08-23T15:07:12;2.38;;;1.70;;
8104;SDS011;4095;48.942;9.104;2022-08-23T15:09:38;2.42;;;1.75;;
8104;SDS011;4095;48.942;9.104;2022-08-23T15:12:03;4.38;;;1.80;;
8104;SDS011;4095;48.942;9.104;2022-08-23T15:14:29;3.10;;;1.85;;
8104;SDS011;4095;48.942;9.104;2022-08-23T15:16:54;2.72;;;1.98;;
8104;SDS011;4095;48.942;9.104;2022-08-23T15:19:20;4.55;;;1.80;;
8104;SDS011;4095;48.942;9.104;2022-08-23T15:21:46;2.15;;;1.40;;
8104;SDS011;4095;48.942;9.104;2022-08-23T15:24:11;3.63;;;1.90;;
8104;SDS011;4095;48.942;9.104;2022-08-23T15:26:37;2.58;;;1.70;;
8104;SDS011;4095;48.942;9.104;2022-08-23T15:29:03;2.10;;;1.60;;
8104;SDS011;4095;48.942;9.104;2022-08-23T15:31:29;2.22;;;1.63;;
8104;SDS011;4095;48.942;9.104;2022-08-23T15:33:54;2.28;;;1.60;;
8104;SDS011;4095;48.942;9.104;2022-08-23T15:36:20;3.83;;;1.73;;
8104;SDS011;4095;48.942;9.104;2022-08-23T15:38:47;5.00;;;1.63;;
8104;SDS011;4095;48.942;9.104;2022-08-23T15:41:14;2.60;;;1.90;;
8104;SDS011;4095;48.942;9.104;2022-08-23T15:43:41;2.42;;;1.60;;
8104;SDS011;4095;48.942;9.104;2022-08-23T15:46:08;2.70;;;1.83;;
8104;SDS011;4095;48.942;9.104;2022-08-23T15:48:43;3.85;;;1.60;;
8104;SDS011;4095;48.942;9.104;2022-08-23T15:51:12;2.58;;;1.80;;
8104;SDS011;4095;48.942;9.104;2022-08-23T15:53:40;3.08;;;1.92;;
8104;SDS011;4095;48.942;9.104;2022-08-23T15:56:07;3.40;;;1.85;;
8104;SDS011;4095;48.942;9.104;2022-08-23T15:58:35;2.63;;;1.75;;
8104;SDS011;4095;48.942;9.104;2022-08-23T16:01:02;4.40;;;1.80;;
8104;SDS011;4095;48.942;9.104;2022-08-23T16:03:28;3.50;;;1.75;;
8104;SDS011;4095;48.942;9.104;2022-08-23T16:05:53;2.85;;;1.90;;
8104;SDS011;4095;48.942;9.104;2022-08-23T16:08:20;4.38;;;2.00;;
8104;SDS011;4095;48.942;9.104;2022-08-23T16:10:49;2.45;;;1.92;;
8104;SDS011;4095;48.942;9.104;2022-08-23T16:13:16;3.25;;;2.05;;
8104;SDS011;4095;48.942;9.104;2022-08-23T16:15:42;2.67;;;1.63;;
8104;SDS011;4095;48.942;9.104;2022-08-23T16:18:08;4.40;;;1.70;;
8104;SDS011;4095;48.942;9.104;2022-08-23T16:20:34;4.60;;;1.73;;
8104;SDS011;4095;48.942;9.104;2022-08-23T16:23:00;2.78;;;1.70;;
8104;SDS011;4095;48.942;9.104;2022-08-23T16:25:26;3.17;;;1.83;;
8104;SDS011;4095;48.942;9.104;2022-08-23T16:27:51;3.17;;;1.60;;
8104;SDS011;4095;48.942;9.104;2022-08-23T16:30:17;2.95;;;1.73;;
8104;SDS011;4095;48.942;9.104;2022-08-23T16:32:43;2.47;;;1.70;;
8104;SDS011;4095;48.942;9.104;2022-08-23T16:35:08;2.55;;;1.70;;
8104;SDS011;4095;48.942;9.104;2022-08-23T16:37:34;3.03;;;1.70;;
8104;SDS011;4095;48.942;9.104;2022-08-23T16:40:00;3.85;;;2.00;;
8104;SDS011;4095;48.942;9.104;2022-08-23T16:42:27;3.17;;;1.80;;
8104;SDS011;4095;48.942;9.104;2022-08-23T16:44:53;4.63;;;2.33;;
8104;SDS011;4095;48.942;9.104;2022-08-23T16:47:18;3.85;;;1.83;;
8104;SDS011;4095;48.942;9.104;2022-08-23T16:49:44;3.75;;;1.90;;
8104;SDS011;4095;48.942;9.104;2022-08-23T16:52:10;4.75;;;2.13;;
8104;SDS011;4095;48.942;9.104;2022-08-23T16:54:36;2.80;;;1.90;;
8104;SDS011;4095;48.942;9.104;2022-08-23T16:57:02;3.28;;;1.92;;
8104;SDS011;4095;48.942;9.104;2022-08-23T16:59:28;4.43;;;2.00;;
8104;SDS011;4095;48.942;9.104;2022-08-23T17:01:58;3.78;;;1.90;;
8104;SDS011;4095;48.942;9.104;2022-08-23T17:04:26;3.30;;;1.80;;